sensor_id;sensor_type;location;lat;lon;timestamp;P1;durP1;ratioP1;P2;durP2;ratioP2
5345;SDS011;2695;49.444;11.054;2022-12-16T00:01:33;22.60;;;11.80;;
5345;SDS011;2695;49.444;11.054;2022-12-16T00:04:03;20.70;;;12.13;;
5345;SDS011;2695;49.444;11.054;2022-12-16T00:06:32;26.67;;;13.80;;
5345;SDS011;2695;49.444;11.054;2022-12-16T00:09:00;20.93;;;12.10;;
5345;SDS011;2695;49.444;11.054;2022-12-16T00:11:28;25.17;;;13.27;;
5345;SDS011;2695;49.444;11.054;2022-12-16T00:13:57;24.57;;;12.80;;
5345;SDS011;2695;49.444;11.054;2022-12-16T00:16:25;24.10;;;12.20;;
5345;SDS011;2695;49.444;11.054;2022-12-16T00:18:53;17.83;;;10.83;;
5345;SDS011;2695;49.444;11.054;2022-12-16T00:21:23;26.43;;;12.80;;
5345;SDS011;2695;49.444;11.054;2022-12-16T00:23:54;22.77;;;12.67;;
5345;SDS011;2695;49.444;11.054;2022-12-16T00:26:23;24.13;;;12.93;;
5345;SDS011;2695;49.444;11.054;2022-12-16T00:28:51;28.00;;;13.07;;
5345;SDS011;2695;49.444;11.054;2022-12-16T00:31:20;20.53;;;11.43;;
5345;SDS011;2695;49.444;11.054;2022-12-16T00:33:48;20.60;;;11.60;;
5345;SDS011;2695;49.444;11.054;2022-12-16T00:36:18;20.30;;;12.27;;
5345;SDS011;2695;49.444;11.054;2022-12-16T00:38:47;25.30;;;13.10;;
5345;SDS011;2695;49.444;11.054;2022-12-16T00:41:17;24.23;;;14.03;;
5345;SDS011;2695;49.444;11.054;2022-12-16T00:43:45;23.83;;;13.23;;
5345;SDS011;2695;49.444;11.054;2022-12-16T00:46:13;24.93;;;12.30;;
5345;SDS011;2695;49.444;11.054;2022-12-16T00:48:41;20.10;;;11.47;;
5345;SDS011;2695;49.444;11.054;2022-12-16T00:51:09;22.63;;;12.80;;
5345;SDS011;2695;49.444;11.054;2022-12-16T00:53:37;20.23;;;12.70;;
5345;SDS011;2695;49.444;11.054;2022-12-16T00:56:07;23.03;;;12.07;;
5345;SDS011;2695;49.444;11.054;2022-12-16T00:58:36;23.53;;;13.10;;
5345;SDS011;2695;49.444;11.054;2022-12-16T01:01:05;22.80;;;12.60;;
5345;SDS011;2695;49.444;11.054;2022-12-16T01:03:33;24.60;;;11.93;;
5345;SDS011;2695;49.444;11.054;2022-12-16T01:06:05;25.50;;;13.80;;
5345;SDS011;2695;49.444;11.054;2022-12-16T01:08:35;22.90;;;12.80;;
5345;SDS011;2695;49.444;11.054;2022-12-16T01:11:03;22.93;;;11.90;;
5345;SDS011;2695;49.444;11.054;2022-12-16T01:13:32;25.23;;;12.97;;
5345;SDS011;2695;49.444;11.054;2022-12-16T01:16:01;25.23;;;14.37;;
5345;SDS011;2695;49.444;11.054;2022-12-16T01:18:29;18.20;;;11.67;;
5345;SDS011;2695;49.444;11.054;2022-12-16T01:21:01;23.43;;;13.13;;
5345;SDS011;2695;49.444;11.054;2022-12-16T01:23:30;25.97;;;13.80;;
5345;SDS011;2695;49.444;11.054;2022-12-16T01:25:59;29.50;;;14.67;;
5345;SDS011;2695;49.444;11.054;2022-12-16T01:28:28;23.33;;;12.73;;
5345;SDS011;2695;49.444;11.054;2022-12-16T01:30:58;25.70;;;14.93;;
5345;SDS011;2695;49.444;11.054;2022-12-16T01:33:27;22.97;;;12.70;;
5345;SDS011;2695;49.444;11.054;2022-12-16T01:35:57;23.53;;;13.40;;
5345;SDS011;2695;49.444;11.054;2022-12-16T01:38:26;22.53;;;13.73;;
5345;SDS011;2695;49.444;11.054;2022-12-16T01:40:54;27.27;;;14.00;;
5345;SDS011;2695;49.444;11.054;2022-12-16T01:43:24;25.00;;;14.27;;
5345;SDS011;2695;49.444;11.054;2022-12-16T01:45:53;26.60;;;14.33;;
5345;SDS011;2695;49.444;11.054;2022-12-16T01:48:29;25.70;;;14.63;;
5345;SDS011;2695;49.444;11.054;2022-12-16T01:51:03;24.93;;;13.10;;
5345;SDS011;2695;49.444;11.054;2022-12-16T01:53:34;26.90;;;14.73;;
5345;SDS011;2695;49.444;11.054;2022-12-16T01:56:03;26.40;;;14.70;;
5345;SDS011;2695;49.444;11.054;2022-12-16T01:58:33;31.37;;;14.10;;
5345;SDS011;2695;49.444;11.054;2022-12-16T02:01:03;24.83;;;13.87;;
5345;SDS011;2695;49.444;11.054;2022-12-16T02:03:34;25.20;;;12.63;;
5345;SDS011;2695;49.444;11.054;2022-12-16T02:06:04;23.93;;;13.70;;
5345;SDS011;2695;49.444;11.054;2022-12-16T02:08:33;25.70;;;13.80;;
5345;SDS011;2695;49.444;11.054;2022-12-16T02:17:02;35.43;;;14.87;;
5345;SDS011;2695;49.444;11.054;2022-12-16T02:19:51;26.90;;;12.50;;
5345;SDS011;2695;49.444;11.054;2022-12-16T02:22:37;26.90;;;13.30;;
5345;SDS011;2695;49.444;11.054;2022-12-16T02:25:24;24.37;;;12.30;;
5345;SDS011;2695;49.444;11.054;2022-12-16T02:28:06;26.10;;;12.73;;
5345;SDS011;2695;49.444;11.054;2022-12-16T02:30:51;26.83;;;13.10;;
5345;SDS011;2695;49.444;11.054;2022-12-16T02:33:31;27.00;;;13.90;;
5345;SDS011;2695;49.444;11.054;2022-12-16T02:36:11;27.17;;;12.97;;
5345;SDS011;2695;49.444;11.054;2022-12-16T02:38:54;25.80;;;14.20;;
5345;SDS011;2695;49.444;11.054;2022-12-16T02:41:28;21.53;;;13.17;;
5345;SDS011;2695;49.444;11.054;2022-12-16T02:44:04;24.70;;;12.30;;
5345;SDS011;2695;49.444;11.054;2022-12-16T02:46:39;26.20;;;14.30;;
5345;SDS011;2695;49.444;11.054;2022-12-16T02:52:11;29.37;;;13.93;;
5345;SDS011;2695;49.444;11.054;2022-12-16T02:54:41;22.33;;;12.60;;
5345;SDS011;2695;49.444;11.054;2022-12-16T02:57:14;21.33;;;12.70;;
5345;SDS011;2695;49.444;11.054;2022-12-16T03:00:03;24.93;;;12.13;;
5345;SDS011;2695;49.444;11.054;2022-12-16T03:02:38;27.27;;;13.00;;
5345;SDS011;2695;49.444;11.054;2022-12-16T03:05:15;23.77;;;10.70;;
5345;SDS011;2695;49.444;11.054;2022-12-16T03:07:47;28.40;;;12.20;;
5345;SDS011;2695;49.444;11.054;2022-12-16T03:10:18;24.30;;;11.73;;
5345;SDS011;2695;49.444;11.054;2022-12-16T03:12:52;25.77;;;12.40;;
5345;SDS011;2695;49.444;11.054;2022-12-16T03:15:22;22.47;;;12.03;;
5345;SDS011;2695;49.444;11.054;2022-12-16T03:17:54;24.37;;;12.20;;
5345;SDS011;2695;49.444;11.054;2022-12-16T03:20:26;22.37;;;12.30;;
5345;SDS011;2695;49.444;11.054;2022-12-16T03:22:58;22.10;;;12.00;;
5345;SDS011;2695;49.444;11.054;2022-12-16T03:25:30;30.03;;;13.37;;
5345;SDS011;2695;49.444;11.054;2022-12-16T03:28:03;23.40;;;13.10;;
5345;SDS011;2695;49.444;11.054;2022-12-16T03:30:41;20.73;;;10.60;;
5345;SDS011;2695;49.444;11.054;2022-12-16T03:33:17;24.37;;;12.73;;
5345;SDS011;2695;49.444;11.054;2022-12-16T03:35:53;19.60;;;11.60;;
5345;SDS011;2695;49.444;11.054;2022-12-16T03:38:25;24.10;;;12.00;;
5345;SDS011;2695;49.444;11.054;2022-12-16T03:40:56;22.83;;;11.73;;
5345;SDS011;2695;49.444;11.054;2022-12-16T03:43:26;27.00;;;12.53;;
5345;SDS011;2695;49.444;11.054;2022-12-16T03:45:56;24.97;;;12.50;;
5345;SDS011;2695;49.444;11.054;2022-12-16T03:48:31;26.10;;;12.07;;
5345;SDS011;2695;49.444;11.054;2022-12-16T03:51:00;27.30;;;12.70;;
5345;SDS011;2695;49.444;11.054;2022-12-16T03:53:29;34.03;;;12.73;;
5345;SDS011;2695;49.444;11.054;2022-12-16T03:55:58;21.50;;;11.80;;
5345;SDS011;2695;49.444;11.054;2022-12-16T03:58:26;24.13;;;12.70;;
5345;SDS011;2695;49.444;11.054;2022-12-16T04:00:54;20.90;;;12.70;;
5345;SDS011;2695;49.444;11.054;2022-12-16T04:03:22;23.00;;;12.23;;
5345;SDS011;2695;49.444;11.054;2022-12-16T04:05:52;20.37;;;12.00;;
5345;SDS011;2695;49.444;11.054;2022-12-16T04:08:20;21.43;;;11.40;;
5345;SDS011;2695;49.444;11.054;2022-12-16T04:10:49;20.40;;;10.90;;
5345;SDS011;2695;49.444;11.054;2022-12-16T04:13:35;22.50;;;11.63;;
5345;SDS011;2695;49.444;11.054;2022-12-16T04:16:21;25.27;;;12.57;;
5345;SDS011;2695;49.444;11.054;2022-12-16T04:19:10;20.97;;;12.10;;
5345;SDS011;2695;49.444;11.054;2022-12-16T04:22:04;25.80;;;11.80;;
5345;SDS011;2695;49.444;11.054;2022-12-16T04:24:53;33.60;;;12.83;;
5345;SDS011;2695;49.444;11.054;2022-12-16T04:27:21;21.53;;;11.47;;
5345;SDS011;2695;49.444;11.054;2022-12-16T04:29:53;19.23;;;11.10;;
5345;SDS011;2695;49.444;11.054;2022-12-16T04:32:39;22.33;;;12.07;;
5345;SDS011;2695;49.444;11.054;2022-12-16T04:35:25;26.70;;;12.83;;
5345;SDS011;2695;49.444;11.054;2022-12-16T04:38:13;22.93;;;12.40;;
5345;SDS011;2695;49.444;11.054;2022-12-16T04:41:13;23.00;;;10.67;;
5345;SDS011;2695;49.444;11.054;2022-12-16T04:43:59;19.30;;;11.30;;
5345;SDS011;2695;49.444;11.054;2022-12-16T04:46:45;23.10;;;12.03;;
5345;SDS011;2695;49.444;11.054;2022-12-16T04:49:32;22.70;;;10.73;;
5345;SDS011;2695;49.444;11.054;2022-12-16T04:52:17;21.50;;;10.67;;
5345;SDS011;2695;49.444;11.054;2022-12-16T04:55:04;16.20;;;10.70;;
5345;SDS011;2695;49.444;11.054;2022-12-16T04:57:57;26.03;;;10.83;;
5345;SDS011;2695;49.444;11.054;2022-12-16T05:00:45;21.30;;;11.93;;
5345;SDS011;2695;49.444;11.054;2022-12-16T05:03:32;20.70;;;10.50;;
5345;SDS011;2695;49.444;11.054;2022-12-16T05:06:19;22.50;;;11.23;;
5345;SDS011;2695;49.444;11.054;2022-12-16T05:09:05;19.67;;;10.63;;
5345;SDS011;2695;49.444;11.054;2022-12-16T05:11:53;22.27;;;11.10;;
5345;SDS011;2695;49.444;11.054;2022-12-16T05:14:40;25.20;;;13.33;;
5345;SDS011;2695;49.444;11.054;2022-12-16T05:17:26;20.33;;;10.60;;
5345;SDS011;2695;49.444;11.054;2022-12-16T05:20:11;25.70;;;12.97;;
5345;SDS011;2695;49.444;11.054;2022-12-16T05:22:57;23.10;;;12.13;;
5345;SDS011;2695;49.444;11.054;2022-12-16T05:25:43;20.67;;;11.43;;
5345;SDS011;2695;49.444;11.054;2022-12-16T05:28:30;23.43;;;11.27;;
5345;SDS011;2695;49.444;11.054;2022-12-16T05:31:16;21.93;;;11.73;;
5345;SDS011;2695;49.444;11.054;2022-12-16T05:34:01;20.77;;;10.63;;
5345;SDS011;2695;49.444;11.054;2022-12-16T05:36:47;18.50;;;10.37;;
5345;SDS011;2695;49.444;11.054;2022-12-16T05:39:34;23.37;;;11.87;;
5345;SDS011;2695;49.444;11.054;2022-12-16T05:42:22;24.93;;;10.87;;
5345;SDS011;2695;49.444;11.054;2022-12-16T05:45:10;26.10;;;11.53;;
5345;SDS011;2695;49.444;11.054;2022-12-16T05:47:56;22.33;;;10.90;;
5345;SDS011;2695;49.444;11.054;2022-12-16T05:50:41;23.30;;;10.70;;
5345;SDS011;2695;49.444;11.054;2022-12-16T05:53:27;20.83;;;10.10;;
5345;SDS011;2695;49.444;11.054;2022-12-16T05:56:13;24.93;;;11.50;;
5345;SDS011;2695;49.444;11.054;2022-12-16T05:58:59;20.03;;;11.37;;
5345;SDS011;2695;49.444;11.054;2022-12-16T06:01:49;21.77;;;10.87;;
5345;SDS011;2695;49.444;11.054;2022-12-16T06:04:36;26.20;;;12.67;;
5345;SDS011;2695;49.444;11.054;2022-12-16T06:07:23;27.17;;;10.13;;
5345;SDS011;2695;49.444;11.054;2022-12-16T06:10:11;18.10;;;10.50;;
5345;SDS011;2695;49.444;11.054;2022-12-16T06:12:58;19.40;;;9.83;;
5345;SDS011;2695;49.444;11.054;2022-12-16T06:15:44;19.53;;;10.73;;
5345;SDS011;2695;49.444;11.054;2022-12-16T06:18:36;16.27;;;10.20;;
5345;SDS011;2695;49.444;11.054;2022-12-16T06:21:22;24.43;;;12.13;;
5345;SDS011;2695;49.444;11.054;2022-12-16T06:24:08;18.43;;;10.00;;
5345;SDS011;2695;49.444;11.054;2022-12-16T06:26:54;16.17;;;9.17;;
5345;SDS011;2695;49.444;11.054;2022-12-16T06:29:40;20.17;;;10.50;;
5345;SDS011;2695;49.444;11.054;2022-12-16T06:32:27;18.07;;;9.53;;
5345;SDS011;2695;49.444;11.054;2022-12-16T06:35:23;21.63;;;9.50;;
5345;SDS011;2695;49.444;11.054;2022-12-16T06:38:08;23.10;;;9.97;;
5345;SDS011;2695;49.444;11.054;2022-12-16T06:40:55;16.00;;;10.37;;
5345;SDS011;2695;49.444;11.054;2022-12-16T06:43:42;20.33;;;10.07;;
5345;SDS011;2695;49.444;11.054;2022-12-16T06:46:33;21.73;;;9.67;;
5345;SDS011;2695;49.444;11.054;2022-12-16T06:52:29;16.33;;;9.40;;
5345;SDS011;2695;49.444;11.054;2022-12-16T06:55:16;14.97;;;8.30;;
5345;SDS011;2695;49.444;11.054;2022-12-16T06:58:02;27.47;;;8.33;;
5345;SDS011;2695;49.444;11.054;2022-12-16T07:00:48;15.87;;;7.70;;
5345;SDS011;2695;49.444;11.054;2022-12-16T07:03:35;17.43;;;8.53;;
5345;SDS011;2695;49.444;11.054;2022-12-16T07:06:21;25.13;;;10.07;;
5345;SDS011;2695;49.444;11.054;2022-12-16T07:09:08;18.10;;;9.43;;
5345;SDS011;2695;49.444;11.054;2022-12-16T07:11:54;21.27;;;10.57;;
5345;SDS011;2695;49.444;11.054;2022-12-16T07:14:42;17.63;;;10.27;;
5345;SDS011;2695;49.444;11.054;2022-12-16T07:17:30;19.07;;;11.30;;
5345;SDS011;2695;49.444;11.054;2022-12-16T07:20:18;19.57;;;11.20;;
5345;SDS011;2695;49.444;11.054;2022-12-16T07:23:04;22.27;;;10.60;;
5345;SDS011;2695;49.444;11.054;2022-12-16T07:25:51;18.33;;;9.30;;
5345;SDS011;2695;49.444;11.054;2022-12-16T07:28:37;19.53;;;9.77;;
5345;SDS011;2695;49.444;11.054;2022-12-16T07:31:23;21.43;;;10.43;;
5345;SDS011;2695;49.444;11.054;2022-12-16T07:34:27;15.40;;;8.13;;
5345;SDS011;2695;49.444;11.054;2022-12-16T07:37:18;16.37;;;9.10;;
5345;SDS011;2695;49.444;11.054;2022-12-16T07:40:08;17.03;;;9.43;;
5345;SDS011;2695;49.444;11.054;2022-12-16T07:42:59;17.70;;;9.27;;
5345;SDS011;2695;49.444;11.054;2022-12-16T07:45:54;21.97;;;9.60;;
5345;SDS011;2695;49.444;11.054;2022-12-16T07:48:40;15.20;;;8.90;;
5345;SDS011;2695;49.444;11.054;2022-12-16T07:51:28;14.80;;;8.97;;
5345;SDS011;2695;49.444;11.054;2022-12-16T07:54:15;16.10;;;7.90;;
5345;SDS011;2695;49.444;11.054;2022-12-16T07:57:01;19.93;;;8.93;;
5345;SDS011;2695;49.444;11.054;2022-12-16T07:59:49;21.50;;;7.90;;
5345;SDS011;2695;49.444;11.054;2022-12-16T08:02:35;17.50;;;9.13;;
5345;SDS011;2695;49.444;11.054;2022-12-16T08:05:21;23.20;;;9.20;;
5345;SDS011;2695;49.444;11.054;2022-12-16T08:08:07;11.90;;;8.53;;
5345;SDS011;2695;49.444;11.054;2022-12-16T08:10:52;19.23;;;10.10;;
5345;SDS011;2695;49.444;11.054;2022-12-16T08:13:39;17.57;;;8.80;;
5345;SDS011;2695;49.444;11.054;2022-12-16T08:16:26;14.20;;;8.10;;
5345;SDS011;2695;49.444;11.054;2022-12-16T08:19:12;13.23;;;8.00;;
5345;SDS011;2695;49.444;11.054;2022-12-16T08:21:58;22.07;;;9.70;;
5345;SDS011;2695;49.444;11.054;2022-12-16T08:24:44;21.70;;;8.07;;
5345;SDS011;2695;49.444;11.054;2022-12-16T08:27:45;12.70;;;7.03;;
5345;SDS011;2695;49.444;11.054;2022-12-16T08:30:31;12.43;;;7.37;;
5345;SDS011;2695;49.444;11.054;2022-12-16T08:33:19;13.40;;;8.40;;
5345;SDS011;2695;49.444;11.054;2022-12-16T08:36:07;14.63;;;7.83;;
5345;SDS011;2695;49.444;11.054;2022-12-16T08:38:53;16.53;;;9.00;;
5345;SDS011;2695;49.444;11.054;2022-12-16T08:41:39;15.13;;;8.30;;
5345;SDS011;2695;49.444;11.054;2022-12-16T08:44:24;17.63;;;8.73;;
5345;SDS011;2695;49.444;11.054;2022-12-16T08:47:10;35.47;;;10.63;;
5345;SDS011;2695;49.444;11.054;2022-12-16T08:49:56;22.67;;;8.40;;
5345;SDS011;2695;49.444;11.054;2022-12-16T08:52:42;15.07;;;9.27;;
5345;SDS011;2695;49.444;11.054;2022-12-16T08:55:27;23.07;;;10.00;;
5345;SDS011;2695;49.444;11.054;2022-12-16T08:58:14;15.37;;;8.40;;
5345;SDS011;2695;49.444;11.054;2022-12-16T09:00:59;13.57;;;8.37;;
5345;SDS011;2695;49.444;11.054;2022-12-16T09:03:45;19.07;;;10.00;;
5345;SDS011;2695;49.444;11.054;2022-12-16T09:06:31;18.13;;;9.67;;
5345;SDS011;2695;49.444;11.054;2022-12-16T09:09:17;21.93;;;9.63;;
5345;SDS011;2695;49.444;11.054;2022-12-16T09:12:05;22.10;;;10.50;;
5345;SDS011;2695;49.444;11.054;2022-12-16T09:14:51;21.17;;;10.97;;
5345;SDS011;2695;49.444;11.054;2022-12-16T09:17:41;22.33;;;10.87;;
5345;SDS011;2695;49.444;11.054;2022-12-16T09:20:27;27.90;;;11.30;;
5345;SDS011;2695;49.444;11.054;2022-12-16T09:23:14;16.63;;;9.80;;
5345;SDS011;2695;49.444;11.054;2022-12-16T09:26:00;17.20;;;9.53;;
5345;SDS011;2695;49.444;11.054;2022-12-16T09:28:45;22.40;;;11.77;;
5345;SDS011;2695;49.444;11.054;2022-12-16T09:31:31;25.50;;;12.00;;
5345;SDS011;2695;49.444;11.054;2022-12-16T09:34:16;19.03;;;10.37;;
5345;SDS011;2695;49.444;11.054;2022-12-16T09:37:02;22.60;;;10.20;;
5345;SDS011;2695;49.444;11.054;2022-12-16T09:39:49;22.77;;;10.50;;
5345;SDS011;2695;49.444;11.054;2022-12-16T09:42:37;26.53;;;10.23;;
5345;SDS011;2695;49.444;11.054;2022-12-16T09:45:35;20.57;;;10.43;;
5345;SDS011;2695;49.444;11.054;2022-12-16T09:48:29;15.40;;;9.73;;
5345;SDS011;2695;49.444;11.054;2022-12-16T09:51:23;20.17;;;10.27;;
5345;SDS011;2695;49.444;11.054;2022-12-16T09:54:10;20.80;;;10.20;;
5345;SDS011;2695;49.444;11.054;2022-12-16T09:57:00;23.23;;;11.30;;
5345;SDS011;2695;49.444;11.054;2022-12-16T09:59:52;20.97;;;10.70;;
5345;SDS011;2695;49.444;11.054;2022-12-16T10:02:52;25.20;;;11.40;;
5345;SDS011;2695;49.444;11.054;2022-12-16T10:05:43;25.40;;;13.93;;
5345;SDS011;2695;49.444;11.054;2022-12-16T10:08:40;18.33;;;10.70;;
5345;SDS011;2695;49.444;11.054;2022-12-16T10:11:34;20.20;;;10.27;;
5345;SDS011;2695;49.444;11.054;2022-12-16T10:14:34;18.37;;;9.37;;
5345;SDS011;2695;49.444;11.054;2022-12-16T10:17:24;16.63;;;10.80;;
5345;SDS011;2695;49.444;11.054;2022-12-16T10:20:11;20.60;;;10.97;;
5345;SDS011;2695;49.444;11.054;2022-12-16T10:23:10;21.97;;;10.80;;
5345;SDS011;2695;49.444;11.054;2022-12-16T10:26:03;20.90;;;10.33;;
5345;SDS011;2695;49.444;11.054;2022-12-16T10:28:52;16.00;;;9.93;;
5345;SDS011;2695;49.444;11.054;2022-12-16T10:31:47;25.17;;;9.93;;
5345;SDS011;2695;49.444;11.054;2022-12-16T10:34:34;16.10;;;8.60;;
5345;SDS011;2695;49.444;11.054;2022-12-16T10:37:25;18.07;;;11.23;;
5345;SDS011;2695;49.444;11.054;2022-12-16T10:40:16;17.43;;;9.90;;
5345;SDS011;2695;49.444;11.054;2022-12-16T10:43:12;22.90;;;10.73;;
5345;SDS011;2695;49.444;11.054;2022-12-16T10:46:05;18.30;;;10.70;;
5345;SDS011;2695;49.444;11.054;2022-12-16T10:48:57;19.00;;;10.30;;
5345;SDS011;2695;49.444;11.054;2022-12-16T10:51:43;20.70;;;10.80;;
5345;SDS011;2695;49.444;11.054;2022-12-16T10:54:37;20.33;;;11.03;;
5345;SDS011;2695;49.444;11.054;2022-12-16T10:57:31;16.57;;;9.73;;
5345;SDS011;2695;49.444;11.054;2022-12-16T11:00:37;19.60;;;9.80;;
5345;SDS011;2695;49.444;11.054;2022-12-16T11:03:25;18.43;;;11.30;;
5345;SDS011;2695;49.444;11.054;2022-12-16T11:06:16;15.40;;;10.70;;
5345;SDS011;2695;49.444;11.054;2022-12-16T11:12:20;18.70;;;10.50;;
5345;SDS011;2695;49.444;11.054;2022-12-16T11:15:24;18.20;;;11.57;;
5345;SDS011;2695;49.444;11.054;2022-12-16T11:18:12;19.93;;;11.37;;
5345;SDS011;2695;49.444;11.054;2022-12-16T11:21:03;28.73;;;12.17;;
5345;SDS011;2695;49.444;11.054;2022-12-16T11:26:59;19.60;;;11.10;;
5345;SDS011;2695;49.444;11.054;2022-12-16T11:29:50;19.40;;;10.53;;
5345;SDS011;2695;49.444;11.054;2022-12-16T11:32:38;17.17;;;10.70;;
5345;SDS011;2695;49.444;11.054;2022-12-16T11:35:28;21.17;;;11.63;;
5345;SDS011;2695;49.444;11.054;2022-12-16T11:38:20;19.00;;;11.40;;
5345;SDS011;2695;49.444;11.054;2022-12-16T11:41:18;23.00;;;12.00;;
5345;SDS011;2695;49.444;11.054;2022-12-16T11:44:09;18.53;;;11.17;;
5345;SDS011;2695;49.444;11.054;2022-12-16T11:47:01;21.27;;;11.63;;
5345;SDS011;2695;49.444;11.054;2022-12-16T11:49:48;21.17;;;11.27;;
5345;SDS011;2695;49.444;11.054;2022-12-16T11:52:44;25.27;;;12.87;;
5345;SDS011;2695;49.444;11.054;2022-12-16T11:55:39;24.00;;;11.97;;
5345;SDS011;2695;49.444;11.054;2022-12-16T11:58:39;18.40;;;11.20;;
5345;SDS011;2695;49.444;11.054;2022-12-16T12:01:30;20.60;;;11.73;;
5345;SDS011;2695;49.444;11.054;2022-12-16T12:04:20;24.60;;;12.73;;
5345;SDS011;2695;49.444;11.054;2022-12-16T12:07:10;20.13;;;11.93;;
5345;SDS011;2695;49.444;11.054;2022-12-16T12:13:40;21.97;;;12.03;;
5345;SDS011;2695;49.444;11.054;2022-12-16T12:16:36;29.17;;;12.30;;
5345;SDS011;2695;49.444;11.054;2022-12-16T12:19:32;21.07;;;11.80;;
5345;SDS011;2695;49.444;11.054;2022-12-16T12:22:31;28.33;;;13.30;;
5345;SDS011;2695;49.444;11.054;2022-12-16T12:25:21;20.07;;;11.63;;
5345;SDS011;2695;49.444;11.054;2022-12-16T12:28:16;23.73;;;12.47;;
5345;SDS011;2695;49.444;11.054;2022-12-16T12:31:19;22.97;;;11.03;;
5345;SDS011;2695;49.444;11.054;2022-12-16T12:34:17;17.97;;;11.00;;
5345;SDS011;2695;49.444;11.054;2022-12-16T12:37:15;32.47;;;14.10;;
5345;SDS011;2695;49.444;11.054;2022-12-16T12:40:12;21.73;;;12.30;;
5345;SDS011;2695;49.444;11.054;2022-12-16T12:43:08;19.57;;;11.97;;
5345;SDS011;2695;49.444;11.054;2022-12-16T12:46:08;24.73;;;13.90;;
5345;SDS011;2695;49.444;11.054;2022-12-16T12:49:04;24.17;;;13.57;;
5345;SDS011;2695;49.444;11.054;2022-12-16T12:51:59;24.70;;;13.13;;
5345;SDS011;2695;49.444;11.054;2022-12-16T12:54:51;19.80;;;12.00;;
5345;SDS011;2695;49.444;11.054;2022-12-16T12:57:42;21.73;;;12.20;;
5345;SDS011;2695;49.444;11.054;2022-12-16T13:00:26;27.63;;;13.10;;
5345;SDS011;2695;49.444;11.054;2022-12-16T13:03:16;32.20;;;11.17;;
5345;SDS011;2695;49.444;11.054;2022-12-16T13:06:12;25.13;;;12.80;;
5345;SDS011;2695;49.444;11.054;2022-12-16T13:08:58;25.50;;;12.80;;
5345;SDS011;2695;49.444;11.054;2022-12-16T13:15:06;21.27;;;12.37;;
5345;SDS011;2695;49.444;11.054;2022-12-16T13:21:35;20.10;;;12.80;;
5345;SDS011;2695;49.444;11.054;2022-12-16T13:24:33;24.73;;;12.30;;
5345;SDS011;2695;49.444;11.054;2022-12-16T13:27:29;24.17;;;12.70;;
5345;SDS011;2695;49.444;11.054;2022-12-16T13:30:30;21.17;;;12.20;;
5345;SDS011;2695;49.444;11.054;2022-12-16T13:33:21;22.97;;;13.43;;
5345;SDS011;2695;49.444;11.054;2022-12-16T13:36:14;23.00;;;12.93;;
5345;SDS011;2695;49.444;11.054;2022-12-16T13:39:17;23.87;;;13.50;;
5345;SDS011;2695;49.444;11.054;2022-12-16T13:45:33;24.00;;;12.60;;
5345;SDS011;2695;49.444;11.054;2022-12-16T13:48:26;19.70;;;11.47;;
5345;SDS011;2695;49.444;11.054;2022-12-16T13:54:59;23.37;;;13.43;;
5345;SDS011;2695;49.444;11.054;2022-12-16T13:57:57;24.93;;;12.93;;
5345;SDS011;2695;49.444;11.054;2022-12-16T14:00:57;22.83;;;11.80;;
5345;SDS011;2695;49.444;11.054;2022-12-16T14:03:49;24.77;;;12.90;;
5345;SDS011;2695;49.444;11.054;2022-12-16T14:06:36;25.90;;;13.67;;
5345;SDS011;2695;49.444;11.054;2022-12-16T14:09:28;21.27;;;12.10;;
5345;SDS011;2695;49.444;11.054;2022-12-16T14:15:30;21.77;;;12.73;;
5345;SDS011;2695;49.444;11.054;2022-12-16T14:18:29;25.90;;;13.03;;
5345;SDS011;2695;49.444;11.054;2022-12-16T14:21:26;22.60;;;13.00;;
5345;SDS011;2695;49.444;11.054;2022-12-16T14:24:17;25.00;;;11.70;;
5345;SDS011;2695;49.444;11.054;2022-12-16T14:27:12;22.17;;;12.53;;
5345;SDS011;2695;49.444;11.054;2022-12-16T14:30:00;22.27;;;13.10;;
5345;SDS011;2695;49.444;11.054;2022-12-16T14:32:46;27.20;;;13.60;;
5345;SDS011;2695;49.444;11.054;2022-12-16T14:35:32;31.27;;;14.17;;
5345;SDS011;2695;49.444;11.054;2022-12-16T14:38:22;26.23;;;14.27;;
5345;SDS011;2695;49.444;11.054;2022-12-16T14:41:09;24.93;;;13.57;;
5345;SDS011;2695;49.444;11.054;2022-12-16T14:43:56;24.53;;;13.33;;
5345;SDS011;2695;49.444;11.054;2022-12-16T14:46:43;24.17;;;12.47;;
5345;SDS011;2695;49.444;11.054;2022-12-16T14:49:49;26.87;;;14.37;;
5345;SDS011;2695;49.444;11.054;2022-12-16T14:52:37;27.70;;;14.10;;
5345;SDS011;2695;49.444;11.054;2022-12-16T14:55:25;22.53;;;12.93;;
5345;SDS011;2695;49.444;11.054;2022-12-16T14:58:12;27.27;;;15.00;;
5345;SDS011;2695;49.444;11.054;2022-12-16T15:01:01;30.07;;;15.90;;
5345;SDS011;2695;49.444;11.054;2022-12-16T15:03:50;25.53;;;14.43;;
5345;SDS011;2695;49.444;11.054;2022-12-16T15:06:37;28.07;;;15.40;;
5345;SDS011;2695;49.444;11.054;2022-12-16T15:09:26;27.97;;;14.83;;
5345;SDS011;2695;49.444;11.054;2022-12-16T15:12:14;30.00;;;14.10;;
5345;SDS011;2695;49.444;11.054;2022-12-16T15:15:06;26.63;;;13.97;;
5345;SDS011;2695;49.444;11.054;2022-12-16T15:17:57;26.17;;;13.87;;
5345;SDS011;2695;49.444;11.054;2022-12-16T15:20:48;24.07;;;13.77;;
5345;SDS011;2695;49.444;11.054;2022-12-16T15:23:38;26.00;;;14.27;;
5345;SDS011;2695;49.444;11.054;2022-12-16T15:26:26;29.20;;;15.23;;
5345;SDS011;2695;49.444;11.054;2022-12-16T15:29:25;23.40;;;14.00;;
5345;SDS011;2695;49.444;11.054;2022-12-16T15:32:26;25.93;;;14.30;;
5345;SDS011;2695;49.444;11.054;2022-12-16T15:35:22;26.20;;;14.57;;
5345;SDS011;2695;49.444;11.054;2022-12-16T15:38:11;35.73;;;14.40;;
5345;SDS011;2695;49.444;11.054;2022-12-16T15:41:13;28.80;;;14.30;;
5345;SDS011;2695;49.444;11.054;2022-12-16T15:44:11;28.63;;;15.57;;
5345;SDS011;2695;49.444;11.054;2022-12-16T15:46:58;24.83;;;14.77;;
5345;SDS011;2695;49.444;11.054;2022-12-16T15:49:44;23.43;;;14.07;;
5345;SDS011;2695;49.444;11.054;2022-12-16T15:52:34;27.77;;;14.27;;
5345;SDS011;2695;49.444;11.054;2022-12-16T15:55:24;25.77;;;14.43;;
5345;SDS011;2695;49.444;11.054;2022-12-16T15:58:14;25.67;;;13.73;;
5345;SDS011;2695;49.444;11.054;2022-12-16T16:01:03;29.30;;;14.07;;
5345;SDS011;2695;49.444;11.054;2022-12-16T16:03:50;29.00;;;15.47;;
5345;SDS011;2695;49.444;11.054;2022-12-16T16:06:37;27.53;;;15.17;;
5345;SDS011;2695;49.444;11.054;2022-12-16T16:09:26;23.50;;;12.97;;
5345;SDS011;2695;49.444;11.054;2022-12-16T16:12:15;28.53;;;14.13;;
5345;SDS011;2695;49.444;11.054;2022-12-16T16:15:01;27.43;;;14.03;;
5345;SDS011;2695;49.444;11.054;2022-12-16T16:17:49;27.67;;;15.10;;
5345;SDS011;2695;49.444;11.054;2022-12-16T16:20:38;22.70;;;12.27;;
5345;SDS011;2695;49.444;11.054;2022-12-16T16:23:24;24.37;;;13.40;;
5345;SDS011;2695;49.444;11.054;2022-12-16T16:26:10;23.80;;;14.53;;
5345;SDS011;2695;49.444;11.054;2022-12-16T16:28:58;25.77;;;13.17;;
5345;SDS011;2695;49.444;11.054;2022-12-16T16:31:44;23.67;;;12.93;;
5345;SDS011;2695;49.444;11.054;2022-12-16T16:34:30;27.63;;;15.10;;
5345;SDS011;2695;49.444;11.054;2022-12-16T16:37:16;22.73;;;13.70;;
5345;SDS011;2695;49.444;11.054;2022-12-16T16:40:08;24.87;;;14.43;;
5345;SDS011;2695;49.444;11.054;2022-12-16T16:43:01;26.10;;;15.27;;
5345;SDS011;2695;49.444;11.054;2022-12-16T16:45:45;25.60;;;15.30;;
5345;SDS011;2695;49.444;11.054;2022-12-16T16:48:46;23.90;;;14.60;;
5345;SDS011;2695;49.444;11.054;2022-12-16T16:51:32;25.63;;;14.60;;
5345;SDS011;2695;49.444;11.054;2022-12-16T16:54:18;31.90;;;15.40;;
5345;SDS011;2695;49.444;11.054;2022-12-16T16:57:03;29.20;;;14.77;;
5345;SDS011;2695;49.444;11.054;2022-12-16T16:59:49;26.70;;;13.80;;